sensor_id;sensor_type;location;lat;lon;timestamp;P1;P2;P0
65803;PMS5003;65658;63.740;34.316;2023-12-20T00:00:08;0;0;
65803;PMS5003;65658;63.740;34.316;2023-12-20T00:03:55;0;0;
65803;PMS5003;65658;63.740;34.316;2023-12-20T00:07:41;1;1;
65803;PMS5003;65658;63.740;34.316;2023-12-20T00:11:29;0;0;
65803;PMS5003;65658;63.740;34.316;2023-12-20T00:15:15;0;0;
65803;PMS5003;65658;63.740;34.316;2023-12-20T00:19:01;0;0;
65803;PMS5003;65658;63.740;34.316;2023-12-20T00:22:48;0;0;
65803;PMS5003;65658;63.740;34.316;2023-12-20T00:26:46;0;0;
65803;PMS5003;65658;63.740;34.316;2023-12-20T00:30:54;0;0;
65803;PMS5003;65658;63.740;34.316;2023-12-20T00:34:40;0;0;
65803;PMS5003;65658;63.740;34.316;2023-12-20T00:38:26;0;0;
65803;PMS5003;65658;63.740;34.316;2023-12-20T00:42:12;0;0;
65803;PMS5003;65658;63.740;34.316;2023-12-20T00:46:08;0;0;
65803;PMS5003;65658;63.740;34.316;2023-12-20T00:49:55;0;0;
65803;PMS5003;65658;63.740;34.316;2023-12-20T00:53:42;0;0;
65803;PMS5003;65658;63.740;34.316;2023-12-20T00:57:26;0;0;
65803;PMS5003;65658;63.740;34.316;2023-12-20T01:01:24;0;0;
65803;PMS5003;65658;63.740;34.316;2023-12-20T01:05:21;0;0;
65803;PMS5003;65658;63.740;34.316;2023-12-20T01:09:18;0;0;
65803;PMS5003;65658;63.740;34.316;2023-12-20T01:13:05;0;0;
65803;PMS5003;65658;63.740;34.316;2023-12-20T01:17:13;0;0;
65803;PMS5003;65658;63.740;34.316;2023-12-20T01:21:02;0;0;
65803;PMS5003;65658;63.740;34.316;2023-12-20T01:24:48;0;0;
65803;PMS5003;65658;63.740;34.316;2023-12-20T01:28:34;0;0;
65803;PMS5003;65658;63.740;34.316;2023-12-20T01:32:20;0;0;
65803;PMS5003;65658;63.740;34.316;2023-12-20T01:36:07;0;0;
65803;PMS5003;65658;63.740;34.316;2023-12-20T01:40:15;0;0;
65803;PMS5003;65658;63.740;34.316;2023-12-20T01:44:02;0;0;
65803;PMS5003;65658;63.740;34.316;2023-12-20T01:47:48;0;0;
65803;PMS5003;65658;63.740;34.316;2023-12-20T01:51:46;0;0;
65803;PMS5003;65658;63.740;34.316;2023-12-20T01:55:34;0;0;
65803;PMS5003;65658;63.740;34.316;2023-12-20T01:59:31;0;0;
65803;PMS5003;65658;63.740;34.316;2023-12-20T02:03:16;0;0;
65803;PMS5003;65658;63.740;34.316;2023-12-20T02:07:03;0;0;
65803;PMS5003;65658;63.740;34.316;2023-12-20T02:11:00;0;0;
65803;PMS5003;65658;63.740;34.316;2023-12-20T02:14:57;0;0;
65803;PMS5003;65658;63.740;34.316;2023-12-20T02:18:43;0;0;
65803;PMS5003;65658;63.740;34.316;2023-12-20T02:22:40;0;0;
65803;PMS5003;65658;63.740;34.316;2023-12-20T02:26:27;0;0;
65803;PMS5003;65658;63.740;34.316;2023-12-20T02:30:25;0;0;
65803;PMS5003;65658;63.740;34.316;2023-12-20T02:34:12;0;0;
65803;PMS5003;65658;63.740;34.316;2023-12-20T02:37:57;0;1;
65803;PMS5003;65658;63.740;34.316;2023-12-20T02:41:54;0;0;
65803;PMS5003;65658;63.740;34.316;2023-12-20T02:46:01;0;0;
65803;PMS5003;65658;63.740;34.316;2023-12-20T02:49:48;0;0;
65803;PMS5003;65658;63.740;34.316;2023-12-20T02:53:35;0;0;
65803;PMS5003;65658;63.740;34.316;2023-12-20T02:57:21;0;0;
65803;PMS5003;65658;63.740;34.316;2023-12-20T03:01:07;0;0;
65803;PMS5003;65658;63.740;34.316;2023-12-20T03:05:15;0;0;
65803;PMS5003;65658;63.740;34.316;2023-12-20T03:09:02;0;0;
65803;PMS5003;65658;63.740;34.316;2023-12-20T03:12:59;0;0;
65803;PMS5003;65658;63.740;34.316;2023-12-20T03:20:36;0;0;
65803;PMS5003;65658;63.740;34.316;2023-12-20T03:24:21;0;0;
65803;PMS5003;65658;63.740;34.316;2023-12-20T03:28:07;0;0;
65803;PMS5003;65658;63.740;34.316;2023-12-20T03:31:53;0;0;
65803;PMS5003;65658;63.740;34.316;2023-12-20T03:35:49;0;0;
65803;PMS5003;65658;63.740;34.316;2023-12-20T03:39:36;0;0;
65803;PMS5003;65658;63.740;34.316;2023-12-20T03:43:21;0;0;
65803;PMS5003;65658;63.740;34.316;2023-12-20T03:47:07;0;0;
65803;PMS5003;65658;63.740;34.316;2023-12-20T03:51:16;0;0;
65803;PMS5003;65658;63.740;34.316;2023-12-20T03:55:02;0;0;
65803;PMS5003;65658;63.740;34.316;2023-12-20T03:58:59;0;0;
65803;PMS5003;65658;63.740;34.316;2023-12-20T04:02:46;0;0;
65803;PMS5003;65658;63.740;34.316;2023-12-20T04:06:54;0;0;
65803;PMS5003;65658;63.740;34.316;2023-12-20T04:10:41;0;0;
65803;PMS5003;65658;63.740;34.316;2023-12-20T04:14:27;0;0;
65803;PMS5003;65658;63.740;34.316;2023-12-20T04:18:24;0;0;
65803;PMS5003;65658;63.740;34.316;2023-12-20T04:22:21;0;0;
65803;PMS5003;65658;63.740;34.316;2023-12-20T04:26:06;0;0;
65803;PMS5003;65658;63.740;34.316;2023-12-20T04:29:52;0;0;
65803;PMS5003;65658;63.740;34.316;2023-12-20T04:33:49;0;0;
65803;PMS5003;65658;63.740;34.316;2023-12-20T04:37:36;0;0;
65803;PMS5003;65658;63.740;34.316;2023-12-20T04:41:33;0;0;
65803;PMS5003;65658;63.740;34.316;2023-12-20T04:45:18;0;0;
65803;PMS5003;65658;63.740;34.316;2023-12-20T04:49:05;0;0;
65803;PMS5003;65658;63.740;34.316;2023-12-20T04:52:51;1;1;
65803;PMS5003;65658;63.740;34.316;2023-12-20T04:57:00;0;0;
65803;PMS5003;65658;63.740;34.316;2023-12-20T05:00:47;0;0;
65803;PMS5003;65658;63.740;34.316;2023-12-20T05:04:32;0;0;
65803;PMS5003;65658;63.740;34.316;2023-12-20T05:08:18;0;0;
65803;PMS5003;65658;63.740;34.316;2023-12-20T05:12:16;0;0;
65803;PMS5003;65658;63.740;34.316;2023-12-20T05:16:03;0;0;
65803;PMS5003;65658;63.740;34.316;2023-12-20T05:19:50;0;0;
65803;PMS5003;65658;63.740;34.316;2023-12-20T05:23:36;0;0;
65803;PMS5003;65658;63.740;34.316;2023-12-20T05:27:22;0;0;
65803;PMS5003;65658;63.740;34.316;2023-12-20T05:31:08;0;0;
65803;PMS5003;65658;63.740;34.316;2023-12-20T05:34:54;0;0;
65803;PMS5003;65658;63.740;34.316;2023-12-20T05:38:40;0;0;
65803;PMS5003;65658;63.740;34.316;2023-12-20T05:42:27;0;0;
65803;PMS5003;65658;63.740;34.316;2023-12-20T05:46:13;0;0;
65803;PMS5003;65658;63.740;34.316;2023-12-20T05:49:59;0;0;
65803;PMS5003;65658;63.740;34.316;2023-12-20T05:53:44;0;0;
65803;PMS5003;65658;63.740;34.316;2023-12-20T05:57:31;0;0;
65803;PMS5003;65658;63.740;34.316;2023-12-20T06:01:17;0;0;
65803;PMS5003;65658;63.740;34.316;2023-12-20T06:05:04;0;0;
65803;PMS5003;65658;63.740;34.316;2023-12-20T06:08:50;0;0;
65803;PMS5003;65658;63.740;34.316;2023-12-20T06:12:36;0;0;
65803;PMS5003;65658;63.740;34.316;2023-12-20T06:16:23;0;0;
65803;PMS5003;65658;63.740;34.316;2023-12-20T06:20:10;0;2;
65803;PMS5003;65658;63.740;34.316;2023-12-20T06:23:55;0;0;
65803;PMS5003;65658;63.740;34.316;2023-12-20T06:27:42;0;0;
65803;PMS5003;65658;63.740;34.316;2023-12-20T06:31:28;0;0;
65803;PMS5003;65658;63.740;34.316;2023-12-20T06:35:16;0;0;
65803;PMS5003;65658;63.740;34.316;2023-12-20T06:39:02;0;0;
65803;PMS5003;65658;63.740;34.316;2023-12-20T06:42:49;0;1;
65803;PMS5003;65658;63.740;34.316;2023-12-20T06:46:58;0;0;
65803;PMS5003;65658;63.740;34.316;2023-12-20T06:50:44;0;0;
65803;PMS5003;65658;63.740;34.316;2023-12-20T06:54:31;0;1;
65803;PMS5003;65658;63.740;34.316;2023-12-20T06:58:28;1;1;
65803;PMS5003;65658;63.740;34.316;2023-12-20T07:02:25;0;0;
65803;PMS5003;65658;63.740;34.316;2023-12-20T07:06:11;0;0;
65803;PMS5003;65658;63.740;34.316;2023-12-20T07:09:58;0;0;
65803;PMS5003;65658;63.740;34.316;2023-12-20T07:14:05;0;0;
65803;PMS5003;65658;63.740;34.316;2023-12-20T07:17:52;0;0;
65803;PMS5003;65658;63.740;34.316;2023-12-20T07:21:38;0;0;
65803;PMS5003;65658;63.740;34.316;2023-12-20T07:25:36;1;1;
65803;PMS5003;65658;63.740;34.316;2023-12-20T07:29:22;1;1;
65803;PMS5003;65658;63.740;34.316;2023-12-20T07:33:09;2;2;
65803;PMS5003;65658;63.740;34.316;2023-12-20T07:36:56;2;2;
65803;PMS5003;65658;63.740;34.316;2023-12-20T07:40:42;2;2;
65803;PMS5003;65658;63.740;34.316;2023-12-20T07:44:28;0;0;
65803;PMS5003;65658;63.740;34.316;2023-12-20T07:48:14;1;1;
65803;PMS5003;65658;63.740;34.316;2023-12-20T07:52:01;1;1;
65803;PMS5003;65658;63.740;34.316;2023-12-20T07:55:48;0;1;
65803;PMS5003;65658;63.740;34.316;2023-12-20T07:59:34;2;2;
65803;PMS5003;65658;63.740;34.316;2023-12-20T08:03:21;1;1;
65803;PMS5003;65658;63.740;34.316;2023-12-20T08:07:08;1;2;
65803;PMS5003;65658;63.740;34.316;2023-12-20T08:10:54;3;3;
65803;PMS5003;65658;63.740;34.316;2023-12-20T08:14:41;3;3;
65803;PMS5003;65658;63.740;34.316;2023-12-20T08:18:28;1;1;
65803;PMS5003;65658;63.740;34.316;2023-12-20T08:22:14;0;0;
65803;PMS5003;65658;63.740;34.316;2023-12-20T08:29:51;1;1;
65803;PMS5003;65658;63.740;34.316;2023-12-20T08:33:38;0;0;
65803;PMS5003;65658;63.740;34.316;2023-12-20T08:37:25;1;1;
65803;PMS5003;65658;63.740;34.316;2023-12-20T08:41:11;0;0;
65803;PMS5003;65658;63.740;34.316;2023-12-20T08:44:57;2;2;
65803;PMS5003;65658;63.740;34.316;2023-12-20T08:48:44;1;1;
65803;PMS5003;65658;63.740;34.316;2023-12-20T08:52:30;1;1;
65803;PMS5003;65658;63.740;34.316;2023-12-20T08:56:17;1;1;
65803;PMS5003;65658;63.740;34.316;2023-12-20T09:00:03;2;3;
65803;PMS5003;65658;63.740;34.316;2023-12-20T09:03:50;2;2;
65803;PMS5003;65658;63.740;34.316;2023-12-20T09:07:37;2;2;
65803;PMS5003;65658;63.740;34.316;2023-12-20T09:11:24;4;4;
65803;PMS5003;65658;63.740;34.316;2023-12-20T09:15:13;9;9;
65803;PMS5003;65658;63.740;34.316;2023-12-20T09:18:59;2;2;
65803;PMS5003;65658;63.740;34.316;2023-12-20T09:22:45;2;2;
65803;PMS5003;65658;63.740;34.316;2023-12-20T09:26:32;1;1;
65803;PMS5003;65658;63.740;34.316;2023-12-20T09:30:18;1;1;
65803;PMS5003;65658;63.740;34.316;2023-12-20T09:34:07;2;3;
65803;PMS5003;65658;63.740;34.316;2023-12-20T09:37:53;1;1;
65803;PMS5003;65658;63.740;34.316;2023-12-20T09:41:40;1;1;
65803;PMS5003;65658;63.740;34.316;2023-12-20T09:45:28;2;2;
65803;PMS5003;65658;63.740;34.316;2023-12-20T09:49:19;2;2;
65803;PMS5003;65658;63.740;34.316;2023-12-20T09:53:07;1;1;
65803;PMS5003;65658;63.740;34.316;2023-12-20T09:56:54;1;1;
65803;PMS5003;65658;63.740;34.316;2023-12-20T10:00:41;0;0;
65803;PMS5003;65658;63.740;34.316;2023-12-20T10:04:28;0;0;
65803;PMS5003;65658;63.740;34.316;2023-12-20T10:08:17;0;0;
65803;PMS5003;65658;63.740;34.316;2023-12-20T10:12:06;0;0;
65803;PMS5003;65658;63.740;34.316;2023-12-20T10:15:54;0;0;
65803;PMS5003;65658;63.740;34.316;2023-12-20T10:19:40;0;0;
65803;PMS5003;65658;63.740;34.316;2023-12-20T10:23:29;1;1;
65803;PMS5003;65658;63.740;34.316;2023-12-20T10:27:15;0;0;
65803;PMS5003;65658;63.740;34.316;2023-12-20T10:31:04;1;1;
65803;PMS5003;65658;63.740;34.316;2023-12-20T10:34:49;0;0;
65803;PMS5003;65658;63.740;34.316;2023-12-20T10:38:38;1;1;
65803;PMS5003;65658;63.740;34.316;2023-12-20T10:42:26;0;0;
65803;PMS5003;65658;63.740;34.316;2023-12-20T10:46:12;0;0;
65803;PMS5003;65658;63.740;34.316;2023-12-20T10:49:59;0;0;
65803;PMS5003;65658;63.740;34.316;2023-12-20T10:53:46;0;0;
65803;PMS5003;65658;63.740;34.316;2023-12-20T10:57:33;0;0;
65803;PMS5003;65658;63.740;34.316;2023-12-20T11:01:21;1;1;
65803;PMS5003;65658;63.740;34.316;2023-12-20T11:12:53;0;0;
65803;PMS5003;65658;63.740;34.316;2023-12-20T11:16:41;0;0;
65803;PMS5003;65658;63.740;34.316;2023-12-20T11:20:37;0;0;
65803;PMS5003;65658;63.740;34.316;2023-12-20T11:24:21;0;0;
65803;PMS5003;65658;63.740;34.316;2023-12-20T11:28:21;0;0;
65803;PMS5003;65658;63.740;34.316;2023-12-20T11:35:58;0;1;
65803;PMS5003;65658;63.740;34.316;2023-12-20T11:40:07;0;0;
65803;PMS5003;65658;63.740;34.316;2023-12-20T11:43:54;0;0;
65803;PMS5003;65658;63.740;34.316;2023-12-20T11:47:39;0;0;
65803;PMS5003;65658;63.740;34.316;2023-12-20T11:51:26;0;0;
65803;PMS5003;65658;63.740;34.316;2023-12-20T11:55:24;1;1;
65803;PMS5003;65658;63.740;34.316;2023-12-20T11:59:10;0;0;
65803;PMS5003;65658;63.740;34.316;2023-12-20T12:02:57;1;1;
65803;PMS5003;65658;63.740;34.316;2023-12-20T12:06:44;0;0;
65803;PMS5003;65658;63.740;34.316;2023-12-20T12:10:30;0;0;
65803;PMS5003;65658;63.740;34.316;2023-12-20T12:14:16;0;0;
65803;PMS5003;65658;63.740;34.316;2023-12-20T12:18:03;0;0;
65803;PMS5003;65658;63.740;34.316;2023-12-20T12:22:11;1;1;
65803;PMS5003;65658;63.740;34.316;2023-12-20T12:25:40;1;1;
65803;PMS5003;65658;63.740;34.316;2023-12-20T12:29:27;1;1;
65803;PMS5003;65658;63.740;34.316;2023-12-20T12:33:14;1;1;
65803;PMS5003;65658;63.740;34.316;2023-12-20T12:37:01;0;0;
65803;PMS5003;65658;63.740;34.316;2023-12-20T12:40:48;1;1;
65803;PMS5003;65658;63.740;34.316;2023-12-20T12:44:45;1;1;
65803;PMS5003;65658;63.740;34.316;2023-12-20T12:48:32;2;2;
65803;PMS5003;65658;63.740;34.316;2023-12-20T12:52:19;2;2;
65803;PMS5003;65658;63.740;34.316;2023-12-20T12:56:06;1;1;
65803;PMS5003;65658;63.740;34.316;2023-12-20T12:59:53;1;1;
65803;PMS5003;65658;63.740;34.316;2023-12-20T13:03:40;1;1;
65803;PMS5003;65658;63.740;34.316;2023-12-20T14:56:12;3;3;
65803;PMS5003;65658;63.740;34.316;2023-12-20T14:59:58;2;3;
65803;PMS5003;65658;63.740;34.316;2023-12-20T15:03:44;2;2;
65803;PMS5003;65658;63.740;34.316;2023-12-20T15:07:31;2;3;
65803;PMS5003;65658;63.740;34.316;2023-12-20T15:11:18;2;2;
65803;PMS5003;65658;63.740;34.316;2023-12-20T15:15:05;3;3;
65803;PMS5003;65658;63.740;34.316;2023-12-20T15:18:52;2;2;
65803;PMS5003;65658;63.740;34.316;2023-12-20T15:22:38;3;3;
65803;PMS5003;65658;63.740;34.316;2023-12-20T15:26:26;3;3;
65803;PMS5003;65658;63.740;34.316;2023-12-20T15:30:12;2;2;
65803;PMS5003;65658;63.740;34.316;2023-12-20T15:34:10;3;3;
65803;PMS5003;65658;63.740;34.316;2023-12-20T15:37:57;4;4;
65803;PMS5003;65658;63.740;34.316;2023-12-20T15:41:44;2;2;
65803;PMS5003;65658;63.740;34.316;2023-12-20T15:45:31;3;3;
65803;PMS5003;65658;63.740;34.316;2023-12-20T15:49:16;3;4;
65803;PMS5003;65658;63.740;34.316;2023-12-20T15:53:02;2;2;
65803;PMS5003;65658;63.740;34.316;2023-12-20T15:56:49;2;3;
65803;PMS5003;65658;63.740;34.316;2023-12-20T16:00:35;2;2;
65803;PMS5003;65658;63.740;34.316;2023-12-20T16:04:22;1;1;
65803;PMS5003;65658;63.740;34.316;2023-12-20T16:08:08;3;3;
65803;PMS5003;65658;63.740;34.316;2023-12-20T16:11:55;2;2;
65803;PMS5003;65658;63.740;34.316;2023-12-20T16:15:42;2;2;
65803;PMS5003;65658;63.740;34.316;2023-12-20T16:19:34;3;3;
65803;PMS5003;65658;63.740;34.316;2023-12-20T16:23:20;3;4;
65803;PMS5003;65658;63.740;34.316;2023-12-20T16:27:07;2;2;
65803;PMS5003;65658;63.740;34.316;2023-12-20T16:30:53;3;3;
65803;PMS5003;65658;63.740;34.316;2023-12-20T16:34:40;2;2;
65803;PMS5003;65658;63.740;34.316;2023-12-20T16:38:38;3;3;
65803;PMS5003;65658;63.740;34.316;2023-12-20T16:42:24;3;3;
65803;PMS5003;65658;63.740;34.316;2023-12-20T16:46:09;2;2;
65803;PMS5003;65658;63.740;34.316;2023-12-20T16:49:56;2;2;
65803;PMS5003;65658;63.740;34.316;2023-12-20T16:53:42;3;3;
65803;PMS5003;65658;63.740;34.316;2023-12-20T16:57:30;3;3;
65803;PMS5003;65658;63.740;34.316;2023-12-20T17:01:16;4;4;
65803;PMS5003;65658;63.740;34.316;2023-12-20T17:05:14;3;3;
65803;PMS5003;65658;63.740;34.316;2023-12-20T17:09:01;2;2;
65803;PMS5003;65658;63.740;34.316;2023-12-20T17:12:48;2;2;
65803;PMS5003;65658;63.740;34.316;2023-12-20T17:16:34;3;3;
65803;PMS5003;65658;63.740;34.316;2023-12-20T17:20:21;3;3;
65803;PMS5003;65658;63.740;34.316;2023-12-20T17:24:08;2;2;
65803;PMS5003;65658;63.740;34.316;2023-12-20T17:28:06;2;3;
65803;PMS5003;65658;63.740;34.316;2023-12-20T17:31:53;2;2;
65803;PMS5003;65658;63.740;34.316;2023-12-20T17:35:40;2;3;
65803;PMS5003;65658;63.740;34.316;2023-12-20T17:39:26;2;2;
65803;PMS5003;65658;63.740;34.316;2023-12-20T17:43:13;6;6;
65803;PMS5003;65658;63.740;34.316;2023-12-20T17:47:00;3;4;
65803;PMS5003;65658;63.740;34.316;2023-12-20T17:50:47;2;2;
65803;PMS5003;65658;63.740;34.316;2023-12-20T17:54:34;4;4;
65803;PMS5003;65658;63.740;34.316;2023-12-20T17:58:21;3;3;
65803;PMS5003;65658;63.740;34.316;2023-12-20T18:02:07;3;3;
65803;PMS5003;65658;63.740;34.316;2023-12-20T18:06:05;4;4;
65803;PMS5003;65658;63.740;34.316;2023-12-20T18:09:52;3;4;
65803;PMS5003;65658;63.740;34.316;2023-12-20T18:13:38;3;3;
65803;PMS5003;65658;63.740;34.316;2023-12-20T18:17:26;3;3;
65803;PMS5003;65658;63.740;34.316;2023-12-20T18:21:12;3;3;
65803;PMS5003;65658;63.740;34.316;2023-12-20T18:24:58;3;4;
65803;PMS5003;65658;63.740;34.316;2023-12-20T18:28:45;2;2;
65803;PMS5003;65658;63.740;34.316;2023-12-20T18:32:32;3;3;
65803;PMS5003;65658;63.740;34.316;2023-12-20T18:36:19;2;2;
65803;PMS5003;65658;63.740;34.316;2023-12-20T18:40:06;3;3;
65803;PMS5003;65658;63.740;34.316;2023-12-20T18:43:53;9;12;
65803;PMS5003;65658;63.740;34.316;2023-12-20T18:47:39;3;3;
65803;PMS5003;65658;63.740;34.316;2023-12-20T18:51:27;2;2;
65803;PMS5003;65658;63.740;34.316;2023-12-20T18:55:14;4;4;
65803;PMS5003;65658;63.740;34.316;2023-12-20T18:59:01;3;4;
65803;PMS5003;65658;63.740;34.316;2023-12-20T19:02:48;2;2;
65803;PMS5003;65658;63.740;34.316;2023-12-20T19:07:08;13;14;
65803;PMS5003;65658;63.740;34.316;2023-12-20T19:10:55;8;8;
65803;PMS5003;65658;63.740;34.316;2023-12-20T19:14:41;4;4;
65803;PMS5003;65658;63.740;34.316;2023-12-20T19:18:29;3;3;
65803;PMS5003;65658;63.740;34.316;2023-12-20T19:22:16;3;3;
65803;PMS5003;65658;63.740;34.316;2023-12-20T19:26:03;2;6;
65803;PMS5003;65658;63.740;34.316;2023-12-20T19:29:49;3;3;
65803;PMS5003;65658;63.740;34.316;2023-12-20T19:33:37;4;6;
65803;PMS5003;65658;63.740;34.316;2023-12-20T19:37:34;4;4;
65803;PMS5003;65658;63.740;34.316;2023-12-20T19:41:21;6;8;
65803;PMS5003;65658;63.740;34.316;2023-12-20T19:45:09;3;4;
65803;PMS5003;65658;63.740;34.316;2023-12-20T19:48:55;4;6;
65803;PMS5003;65658;63.740;34.316;2023-12-20T19:52:41;4;6;
65803;PMS5003;65658;63.740;34.316;2023-12-20T19:56:28;2;2;
65803;PMS5003;65658;63.740;34.316;2023-12-20T20:00:14;1;1;
65803;PMS5003;65658;63.740;34.316;2023-12-20T20:04:01;2;2;
65803;PMS5003;65658;63.740;34.316;2023-12-20T20:07:48;4;4;
65803;PMS5003;65658;63.740;34.316;2023-12-20T20:11:35;2;2;
65803;PMS5003;65658;63.740;34.316;2023-12-20T20:15:32;2;3;
65803;PMS5003;65658;63.740;34.316;2023-12-20T20:19:18;3;3;
65803;PMS5003;65658;63.740;34.316;2023-12-20T20:23:04;4;4;
65803;PMS5003;65658;63.740;34.316;2023-12-20T20:26:51;3;3;
65803;PMS5003;65658;63.740;34.316;2023-12-20T20:30:38;5;5;
65803;PMS5003;65658;63.740;34.316;2023-12-20T20:34:25;2;2;
65803;PMS5003;65658;63.740;34.316;2023-12-20T20:38:11;2;2;
65803;PMS5003;65658;63.740;34.316;2023-12-20T20:41:58;2;2;
65803;PMS5003;65658;63.740;34.316;2023-12-20T20:45:44;2;2;
65803;PMS5003;65658;63.740;34.316;2023-12-20T20:49:31;3;3;
65803;PMS5003;65658;63.740;34.316;2023-12-20T20:53:29;2;2;
65803;PMS5003;65658;63.740;34.316;2023-12-20T20:57:16;2;2;
65803;PMS5003;65658;63.740;34.316;2023-12-20T21:04:54;6;6;
65803;PMS5003;65658;63.740;34.316;2023-12-20T21:08:40;2;3;
65803;PMS5003;65658;63.740;34.316;2023-12-20T21:12:27;2;2;
65803;PMS5003;65658;63.740;34.316;2023-12-20T21:16:14;1;2;
65803;PMS5003;65658;63.740;34.316;2023-12-20T21:20:06;2;2;
65803;PMS5003;65658;63.740;34.316;2023-12-20T21:23:53;7;7;
65803;PMS5003;65658;63.740;34.316;2023-12-20T21:27:51;3;3;
65803;PMS5003;65658;63.740;34.316;2023-12-20T21:31:38;5;5;
65803;PMS5003;65658;63.740;34.316;2023-12-20T21:35:25;5;5;
65803;PMS5003;65658;63.740;34.316;2023-12-20T21:39:33;2;2;
65803;PMS5003;65658;63.740;34.316;2023-12-20T21:43:20;2;2;
65803;PMS5003;65658;63.740;34.316;2023-12-20T21:47:18;3;5;
65803;PMS5003;65658;63.740;34.316;2023-12-20T21:51:04;5;5;
65803;PMS5003;65658;63.740;34.316;2023-12-20T21:54:51;1;1;
65803;PMS5003;65658;63.740;34.316;2023-12-20T21:58:38;3;5;
65803;PMS5003;65658;63.740;34.316;2023-12-20T22:02:24;2;2;
65803;PMS5003;65658;63.740;34.316;2023-12-20T22:06:11;2;2;
65803;PMS5003;65658;63.740;34.316;2023-12-20T22:09:58;1;1;
65803;PMS5003;65658;63.740;34.316;2023-12-20T22:13:44;3;3;
65803;PMS5003;65658;63.740;34.316;2023-12-20T22:17:30;3;5;
65803;PMS5003;65658;63.740;34.316;2023-12-20T22:21:17;2;2;
65803;PMS5003;65658;63.740;34.316;2023-12-20T22:25:04;2;2;
65803;PMS5003;65658;63.740;34.316;2023-12-20T22:28:51;1;1;
65803;PMS5003;65658;63.740;34.316;2023-12-20T22:32:38;2;2;
65803;PMS5003;65658;63.740;34.316;2023-12-20T22:36:35;3;5;
65803;PMS5003;65658;63.740;34.316;2023-12-20T22:40:22;2;2;
65803;PMS5003;65658;63.740;34.316;2023-12-20T22:44:08;2;2;
65803;PMS5003;65658;63.740;34.316;2023-12-20T22:47:54;1;2;
65803;PMS5003;65658;63.740;34.316;2023-12-20T22:51:40;1;1;
65803;PMS5003;65658;63.740;34.316;2023-12-20T22:55:27;1;1;
65803;PMS5003;65658;63.740;34.316;2023-12-20T22:59:25;1;1;
65803;PMS5003;65658;63.740;34.316;2023-12-20T23:03:12;2;2;
65803;PMS5003;65658;63.740;34.316;2023-12-20T23:07:00;3;3;
65803;PMS5003;65658;63.740;34.316;2023-12-20T23:10:47;3;3;
65803;PMS5003;65658;63.740;34.316;2023-12-20T23:14:33;2;2;
65803;PMS5003;65658;63.740;34.316;2023-12-20T23:18:19;2;3;
65803;PMS5003;65658;63.740;34.316;2023-12-20T23:22:05;1;1;
65803;PMS5003;65658;63.740;34.316;2023-12-20T23:25:52;2;2;
65803;PMS5003;65658;63.740;34.316;2023-12-20T23:29:37;1;1;
65803;PMS5003;65658;63.740;34.316;2023-12-20T23:33:24;2;2;
65803;PMS5003;65658;63.740;34.316;2023-12-20T23:37:11;1;1;
65803;PMS5003;65658;63.740;34.316;2023-12-20T23:41:11;3;5;
65803;PMS5003;65658;63.740;34.316;2023-12-20T23:45:09;1;2;
65803;PMS5003;65658;63.740;34.316;2023-12-20T23:48:56;2;2;
65803;PMS5003;65658;63.740;34.316;2023-12-20T23:52:43;2;2;
65803;PMS5003;65658;63.740;34.316;2023-12-20T23:56:30;1;1;
